ELY347 LGRP-LLBG
Flight info
| Callsign | ELY347 |
|---|---|
| Flight time | 1h 10m |
| Altitude | 33000 |
| Route | NILAS UL609 ALKIS DCT MAROS DCT APLON L609 ZUKKO |
| Aircraft | B738/M-SDE2E3FGHIRWXY/LB1 |
Departure
| Time | 2026-05-01 08:03 |
|---|---|
| Airport | Rhodes International Airport "Diagoras" (LGRP) |
Arrival
| Time | 2026-05-01 09:14 |
|---|---|
| Airport | Ben Gurion International Airport (LLBG) |
| Time | Latitude | Longitude | Altitude | Speed | Heading |
|---|---|---|---|---|---|
| 2026-05-01 07:40 | 36.40310 | 28.08919 | 27 ft | 0 kts | 160° |
| 2026-05-01 07:55 | 36.40350 | 28.08901 | 27 ft | 4 kts | 160° |
| 2026-05-01 07:56 | 36.40403 | 28.08840 | 27 ft | 2 kts | 97° |
| 2026-05-01 07:56 | 36.40403 | 28.08833 | 27 ft | 0 kts | 96° |
| 2026-05-01 07:59 | 36.40402 | 28.08969 | 27 ft | 20 kts | 68° |
| 2026-05-01 07:59 | 36.40542 | 28.09197 | 28 ft | 1 kts | 348° |
| 2026-05-01 08:00 | 36.40440 | 28.09151 | 27 ft | 14 kts | 68° |
| 2026-05-01 08:01 | 36.40694 | 28.09774 | 27 ft | 37 kts | 69° |
| 2026-05-01 08:01 | 36.40781 | 28.10069 | 27 ft | 36 kts | 71° |
| 2026-05-01 08:01 | 36.40863 | 28.10352 | 27 ft | 34 kts | 69° |
| 2026-05-01 08:02 | 36.41019 | 28.10282 | 27 ft | 17 kts | 276° |
| 2026-05-01 08:02 | 36.41005 | 28.10209 | 27 ft | 0 kts | 249° |
| 2026-05-01 08:03 | 36.40801 | 28.09520 | 29 ft | 111 kts | 250° |
| 2026-05-01 08:03 | 36.40467 | 28.08375 | 51 ft | 168 kts | 250° |
| 2026-05-01 08:03 | 36.39829 | 28.05587 | 1957 ft | 160 kts | 268° |
| 2026-05-01 08:04 | 36.39653 | 28.02516 | 3073 ft | 198 kts | 266° |
| 2026-05-01 08:04 | 36.39377 | 27.98624 | 3619 ft | 251 kts | 264° |
| 2026-05-01 08:05 | 36.39020 | 27.94289 | 5507 ft | 251 kts | 264° |
| 2026-05-01 08:05 | 36.38847 | 27.92113 | 6375 ft | 255 kts | 265° |
| 2026-05-01 08:05 | 36.38674 | 27.89917 | 7213 ft | 257 kts | 264° |
| 2026-05-01 08:06 | 36.37490 | 27.85762 | 8837 ft | 267 kts | 228° |
| 2026-05-01 08:06 | 36.34282 | 27.83292 | 10363 ft | 282 kts | 210° |
| 2026-05-01 08:07 | 36.30447 | 27.80973 | 10743 ft | 330 kts | 209° |
| 2026-05-01 08:07 | 36.26132 | 27.78347 | 11665 ft | 353 kts | 209° |
| 2026-05-01 08:08 | 36.23919 | 27.76990 | 12402 ft | 357 kts | 210° |
| 2026-05-01 08:08 | 36.20202 | 27.74701 | 13626 ft | 362 kts | 210° |
| 2026-05-01 08:09 | 36.15655 | 27.71894 | 14926 ft | 369 kts | 210° |
| 2026-05-01 08:09 | 36.13345 | 27.70472 | 15598 ft | 372 kts | 210° |
| 2026-05-01 08:09 | 36.10865 | 27.69458 | 16196 ft | 384 kts | 192° |
| 2026-05-01 08:10 | 36.05534 | 27.70714 | 17413 ft | 410 kts | 154° |
| 2026-05-01 08:10 | 36.00622 | 27.74458 | 18538 ft | 419 kts | 151° |
| 2026-05-01 08:11 | 35.95636 | 27.78306 | 19561 ft | 426 kts | 152° |
| 2026-05-01 08:11 | 35.90544 | 27.82156 | 20555 ft | 434 kts | 148° |
| 2026-05-01 08:12 | 35.86805 | 27.88118 | 21452 ft | 453 kts | 116° |
| 2026-05-01 08:12 | 35.85533 | 27.91690 | 21912 ft | 457 kts | 115° |
| 2026-05-01 08:12 | 35.82974 | 27.98943 | 22729 ft | 465 kts | 115° |
| 2026-05-01 08:13 | 35.81651 | 28.02591 | 23167 ft | 468 kts | 116° |
| 2026-05-01 08:13 | 35.80303 | 28.06251 | 23593 ft | 471 kts | 116° |
| 2026-05-01 08:13 | 35.77874 | 28.13806 | 24198 ft | 481 kts | 99° |
| 2026-05-01 08:14 | 35.77781 | 28.17921 | 24525 ft | 483 kts | 81° |
| 2026-05-01 08:14 | 35.78637 | 28.21894 | 24895 ft | 479 kts | 63° |
| 2026-05-01 08:14 | 35.80330 | 28.25388 | 25237 ft | 474 kts | 46° |
| 2026-05-01 08:14 | 35.82648 | 28.28211 | 25571 ft | 466 kts | 31° |
| 2026-05-01 08:15 | 35.85432 | 28.30168 | 25892 ft | 458 kts | 17° |
| 2026-05-01 08:15 | 35.91313 | 28.33051 | 26571 ft | 459 kts | 15° |
| 2026-05-01 08:15 | 35.94292 | 28.34504 | 26898 ft | 462 kts | 15° |
| 2026-05-01 08:16 | 35.97276 | 28.36011 | 27222 ft | 464 kts | 16° |
| 2026-05-01 08:16 | 36.00299 | 28.37578 | 27543 ft | 468 kts | 18° |
| 2026-05-01 08:16 | 36.03084 | 28.39773 | 27791 ft | 486 kts | 37° |
| 2026-05-01 08:16 | 36.05271 | 28.43016 | 28095 ft | 501 kts | 55° |
| 2026-05-01 08:17 | 36.06622 | 28.47024 | 28387 ft | 513 kts | 74° |
| 2026-05-01 08:17 | 36.06933 | 28.51436 | 28645 ft | 521 kts | 94° |
| 2026-05-01 08:17 | 36.06149 | 28.55736 | 28919 ft | 522 kts | 113° |
| 2026-05-01 08:17 | 36.04328 | 28.59657 | 29263 ft | 518 kts | 129° |
| 2026-05-01 08:18 | 36.02180 | 28.63140 | 29671 ft | 516 kts | 130° |
| 2026-05-01 08:18 | 35.97754 | 28.70240 | 30229 ft | 520 kts | 129° |
| 2026-05-01 08:19 | 35.93520 | 28.77406 | 30793 ft | 520 kts | 128° |
| 2026-05-01 08:19 | 35.91395 | 28.81025 | 31079 ft | 521 kts | 128° |
| 2026-05-01 08:19 | 35.89265 | 28.84640 | 31327 ft | 522 kts | 128° |
| 2026-05-01 08:19 | 35.87129 | 28.88256 | 31580 ft | 522 kts | 128° |
| 2026-05-01 08:20 | 35.84991 | 28.91871 | 31844 ft | 523 kts | 128° |
| 2026-05-01 08:20 | 35.82846 | 28.95491 | 32121 ft | 523 kts | 128° |
| 2026-05-01 08:20 | 35.80705 | 28.99104 | 32437 ft | 522 kts | 128° |
| 2026-05-01 08:20 | 35.78562 | 29.02714 | 32746 ft | 521 kts | 128° |
| 2026-05-01 08:21 | 35.76422 | 29.06318 | 32993 ft | 522 kts | 128° |
| 2026-05-01 08:21 | 35.72106 | 29.13571 | 32996 ft | 526 kts | 128° |
| 2026-05-01 08:22 | 35.67803 | 29.20792 | 32981 ft | 521 kts | 128° |
| 2026-05-01 08:22 | 35.63525 | 29.27955 | 32982 ft | 519 kts | 128° |
| 2026-05-01 08:23 | 35.59253 | 29.35092 | 32989 ft | 518 kts | 128° |
| 2026-05-01 08:23 | 35.54982 | 29.42210 | 32990 ft | 518 kts | 128° |
| 2026-05-01 08:24 | 35.50707 | 29.49323 | 32989 ft | 518 kts | 128° |
| 2026-05-01 08:24 | 35.46426 | 29.56431 | 32987 ft | 518 kts | 128° |
| 2026-05-01 08:25 | 35.42131 | 29.63547 | 32989 ft | 519 kts | 128° |
| 2026-05-01 08:25 | 35.37834 | 29.70653 | 32986 ft | 520 kts | 128° |
| 2026-05-01 08:26 | 35.33522 | 29.77771 | 32989 ft | 520 kts | 128° |
| 2026-05-01 08:26 | 35.29203 | 29.84885 | 32990 ft | 521 kts | 128° |
| 2026-05-01 08:27 | 35.24877 | 29.91997 | 32985 ft | 521 kts | 128° |
| 2026-05-01 08:27 | 35.20543 | 29.99108 | 32991 ft | 521 kts | 128° |
| 2026-05-01 08:28 | 35.16114 | 30.06115 | 32996 ft | 520 kts | 130° |
| 2026-05-01 08:28 | 35.11565 | 30.12986 | 32985 ft | 520 kts | 131° |
| 2026-05-01 08:29 | 35.07048 | 30.19805 | 32992 ft | 520 kts | 130° |
| 2026-05-01 08:29 | 35.02526 | 30.26678 | 32990 ft | 519 kts | 130° |
| 2026-05-01 08:30 | 34.98010 | 30.33550 | 32992 ft | 519 kts | 130° |
| 2026-05-01 08:30 | 34.93498 | 30.40404 | 32987 ft | 518 kts | 130° |
| 2026-05-01 08:31 | 34.88984 | 30.47243 | 32994 ft | 518 kts | 130° |
| 2026-05-01 08:31 | 34.84468 | 30.54070 | 32999 ft | 517 kts | 130° |
| 2026-05-01 08:32 | 34.79953 | 30.60883 | 32996 ft | 517 kts | 130° |
| 2026-05-01 08:32 | 34.75434 | 30.67689 | 32998 ft | 517 kts | 130° |
| 2026-05-01 08:33 | 34.70908 | 30.74493 | 32994 ft | 517 kts | 130° |
| 2026-05-01 08:33 | 34.66380 | 30.81287 | 32993 ft | 517 kts | 130° |
| 2026-05-01 08:34 | 34.61850 | 30.88073 | 32991 ft | 517 kts | 130° |
| 2026-05-01 08:34 | 34.57427 | 30.94969 | 32993 ft | 518 kts | 128° |
| 2026-05-01 08:35 | 34.53107 | 31.01970 | 32990 ft | 518 kts | 128° |
| 2026-05-01 08:35 | 34.48778 | 31.08960 | 32992 ft | 518 kts | 128° |
| 2026-05-01 08:36 | 34.44452 | 31.15876 | 32995 ft | 518 kts | 128° |
| 2026-05-01 08:36 | 34.40082 | 31.22824 | 32993 ft | 519 kts | 128° |
| 2026-05-01 08:37 | 34.35748 | 31.29702 | 32996 ft | 519 kts | 128° |
| 2026-05-01 08:37 | 34.31374 | 31.36635 | 32994 ft | 519 kts | 129° |
| 2026-05-01 08:38 | 34.27521 | 31.42730 | 32994 ft | 519 kts | 129° |
| 2026-05-01 08:38 | 34.23138 | 31.49654 | 32994 ft | 519 kts | 129° |
| 2026-05-01 08:39 | 34.18807 | 31.56480 | 32991 ft | 518 kts | 129° |
| 2026-05-01 08:39 | 34.14417 | 31.63387 | 32992 ft | 517 kts | 129° |
| 2026-05-01 08:40 | 34.07845 | 31.73703 | 32993 ft | 517 kts | 129° |
| 2026-05-01 08:40 | 34.03457 | 31.80573 | 32992 ft | 516 kts | 129° |
| 2026-05-01 08:41 | 33.99074 | 31.87423 | 32990 ft | 516 kts | 129° |
| 2026-05-01 08:41 | 33.94685 | 31.94271 | 32998 ft | 516 kts | 129° |
| 2026-05-01 08:42 | 33.90297 | 32.01105 | 32995 ft | 516 kts | 129° |
| 2026-05-01 08:42 | 33.85903 | 32.07926 | 32998 ft | 515 kts | 130° |
| 2026-05-01 08:43 | 33.81422 | 32.14651 | 32990 ft | 515 kts | 131° |
| 2026-05-01 08:43 | 33.76900 | 32.21329 | 32998 ft | 515 kts | 131° |
| 2026-05-01 08:44 | 33.72385 | 32.28009 | 33001 ft | 515 kts | 131° |
| 2026-05-01 08:44 | 33.67879 | 32.34692 | 32990 ft | 515 kts | 131° |
| 2026-05-01 08:45 | 33.63374 | 32.41368 | 32999 ft | 515 kts | 131° |
| 2026-05-01 08:45 | 33.58864 | 32.48037 | 32998 ft | 514 kts | 131° |
| 2026-05-01 08:46 | 33.54352 | 32.54696 | 32996 ft | 514 kts | 131° |
| 2026-05-01 08:46 | 33.49850 | 32.61327 | 32996 ft | 514 kts | 131° |
| 2026-05-01 08:47 | 33.45489 | 32.67739 | 32990 ft | 514 kts | 131° |
| 2026-05-01 08:47 | 33.40971 | 32.74370 | 32994 ft | 514 kts | 131° |
| 2026-05-01 08:48 | 33.36730 | 32.80584 | 32991 ft | 513 kts | 131° |
| 2026-05-01 08:48 | 33.32209 | 32.87196 | 32998 ft | 513 kts | 131° |
| 2026-05-01 08:49 | 33.28426 | 32.92721 | 32994 ft | 513 kts | 132° |
| 2026-05-01 08:49 | 33.25492 | 32.97001 | 32995 ft | 512 kts | 132° |
| 2026-05-01 08:50 | 33.22226 | 33.01759 | 33001 ft | 512 kts | 132° |
| 2026-05-01 08:50 | 33.17745 | 33.08359 | 32995 ft | 512 kts | 130° |
| 2026-05-01 08:51 | 33.13386 | 33.15103 | 32590 ft | 517 kts | 130° |
| 2026-05-01 08:51 | 33.11198 | 33.18515 | 31880 ft | 517 kts | 130° |
| 2026-05-01 08:51 | 33.09007 | 33.21919 | 31171 ft | 517 kts | 130° |
| 2026-05-01 08:52 | 33.06815 | 33.25310 | 30440 ft | 517 kts | 130° |
| 2026-05-01 08:52 | 33.04608 | 33.28707 | 29573 ft | 518 kts | 130° |
| 2026-05-01 08:52 | 33.02396 | 33.32102 | 28676 ft | 518 kts | 131° |
| 2026-05-01 08:52 | 33.00190 | 33.35482 | 28046 ft | 513 kts | 131° |
| 2026-05-01 08:53 | 32.98015 | 33.38815 | 27425 ft | 507 kts | 131° |
| 2026-05-01 08:53 | 32.95861 | 33.42112 | 26828 ft | 501 kts | 131° |
| 2026-05-01 08:53 | 32.93732 | 33.45370 | 26242 ft | 496 kts | 131° |
| 2026-05-01 08:53 | 32.91627 | 33.48585 | 25663 ft | 490 kts | 131° |
| 2026-05-01 08:54 | 32.89543 | 33.51767 | 25098 ft | 485 kts | 131° |
| 2026-05-01 08:54 | 32.87480 | 33.54915 | 24533 ft | 480 kts | 131° |
| 2026-05-01 08:54 | 32.85440 | 33.58024 | 23971 ft | 475 kts | 131° |
| 2026-05-01 08:54 | 32.83416 | 33.61106 | 23360 ft | 471 kts | 131° |
| 2026-05-01 08:55 | 32.81336 | 33.64073 | 22856 ft | 460 kts | 136° |
| 2026-05-01 08:55 | 32.79176 | 33.66795 | 22598 ft | 447 kts | 138° |
| 2026-05-01 08:55 | 32.77026 | 33.69409 | 22215 ft | 439 kts | 139° |
| 2026-05-01 08:55 | 32.74895 | 33.71978 | 21684 ft | 434 kts | 138° |
| 2026-05-01 08:56 | 32.73494 | 33.73672 | 21315 ft | 432 kts | 138° |
| 2026-05-01 08:56 | 32.71406 | 33.76213 | 20768 ft | 429 kts | 138° |
| 2026-05-01 08:56 | 32.69331 | 33.78754 | 20223 ft | 426 kts | 137° |
| 2026-05-01 08:56 | 32.67280 | 33.81277 | 19691 ft | 423 kts | 137° |
| 2026-05-01 08:57 | 32.65243 | 33.83786 | 19155 ft | 421 kts | 137° |
| 2026-05-01 08:57 | 32.63215 | 33.86282 | 18606 ft | 419 kts | 137° |
| 2026-05-01 08:57 | 32.61259 | 33.88688 | 18047 ft | 417 kts | 137° |
| 2026-05-01 08:57 | 32.59287 | 33.91110 | 17466 ft | 414 kts | 136° |
| 2026-05-01 08:58 | 32.57331 | 33.93601 | 16904 ft | 412 kts | 131° |
| 2026-05-01 08:58 | 32.55701 | 33.96387 | 16444 ft | 409 kts | 121° |
| 2026-05-01 08:58 | 32.54495 | 33.99405 | 16050 ft | 404 kts | 114° |
| 2026-05-01 08:58 | 32.53420 | 34.02462 | 15550 ft | 400 kts | 114° |
| 2026-05-01 08:59 | 32.52357 | 34.05501 | 15038 ft | 398 kts | 114° |
| 2026-05-01 08:59 | 32.51297 | 34.08516 | 14525 ft | 395 kts | 114° |
| 2026-05-01 08:59 | 32.50237 | 34.11506 | 14012 ft | 393 kts | 114° |
| 2026-05-01 08:59 | 32.49175 | 34.14486 | 13450 ft | 391 kts | 114° |
| 2026-05-01 09:00 | 32.48117 | 34.17441 | 12893 ft | 388 kts | 114° |
| 2026-05-01 09:00 | 32.47066 | 34.20367 | 12365 ft | 385 kts | 114° |
| 2026-05-01 09:00 | 32.46019 | 34.23276 | 11843 ft | 382 kts | 114° |
| 2026-05-01 09:00 | 32.44982 | 34.26154 | 11341 ft | 379 kts | 114° |
| 2026-05-01 09:01 | 32.43952 | 34.29008 | 10981 ft | 372 kts | 114° |
| 2026-05-01 09:01 | 32.42953 | 34.31776 | 10821 ft | 360 kts | 114° |
| 2026-05-01 09:01 | 32.41986 | 34.34454 | 10668 ft | 349 kts | 114° |
| 2026-05-01 09:01 | 32.41046 | 34.37055 | 10512 ft | 338 kts | 114° |
| 2026-05-01 09:02 | 32.40135 | 34.39573 | 10373 ft | 328 kts | 114° |
| 2026-05-01 09:02 | 32.39249 | 34.42020 | 10229 ft | 319 kts | 114° |
| 2026-05-01 09:02 | 32.38389 | 34.44394 | 10122 ft | 309 kts | 114° |
| 2026-05-01 09:02 | 32.37555 | 34.46694 | 10033 ft | 297 kts | 114° |
| 2026-05-01 09:03 | 32.36750 | 34.48914 | 9712 ft | 292 kts | 114° |
| 2026-05-01 09:03 | 32.35958 | 34.51094 | 9417 ft | 286 kts | 114° |
| 2026-05-01 09:03 | 32.35181 | 34.53232 | 9119 ft | 280 kts | 114° |
| 2026-05-01 09:03 | 32.34420 | 34.55326 | 8838 ft | 275 kts | 114° |
| 2026-05-01 09:04 | 32.33672 | 34.57381 | 8562 ft | 269 kts | 114° |
| 2026-05-01 09:04 | 32.32940 | 34.59393 | 8297 ft | 265 kts | 114° |
| 2026-05-01 09:04 | 32.32210 | 34.61397 | 8050 ft | 266 kts | 114° |
| 2026-05-01 09:04 | 32.31475 | 34.63413 | 7793 ft | 270 kts | 114° |
| 2026-05-01 09:05 | 32.30719 | 34.65484 | 7536 ft | 278 kts | 114° |
| 2026-05-01 09:05 | 32.30083 | 34.67229 | 7303 ft | 279 kts | 114° |
| 2026-05-01 09:05 | 32.29321 | 34.69317 | 7012 ft | 274 kts | 114° |
| 2026-05-01 09:05 | 32.28573 | 34.71367 | 6730 ft | 269 kts | 114° |
| 2026-05-01 09:06 | 32.27837 | 34.73382 | 6468 ft | 264 kts | 114° |
| 2026-05-01 09:06 | 32.27116 | 34.75356 | 6189 ft | 260 kts | 114° |
| 2026-05-01 09:06 | 32.26404 | 34.77299 | 5924 ft | 256 kts | 114° |
| 2026-05-01 09:06 | 32.25694 | 34.79239 | 5674 ft | 259 kts | 114° |
| 2026-05-01 09:07 | 32.25051 | 34.81227 | 5580 ft | 256 kts | 108° |
| 2026-05-01 09:07 | 32.24543 | 34.83214 | 5579 ft | 250 kts | 108° |
| 2026-05-01 09:07 | 32.24055 | 34.85170 | 5477 ft | 245 kts | 107° |
| 2026-05-01 09:07 | 32.23573 | 34.87072 | 5339 ft | 239 kts | 108° |
| 2026-05-01 09:08 | 32.23092 | 34.88936 | 5141 ft | 235 kts | 108° |
| 2026-05-01 09:08 | 32.22614 | 34.90790 | 4910 ft | 236 kts | 108° |
| 2026-05-01 09:08 | 32.22136 | 34.92643 | 4670 ft | 236 kts | 109° |
| 2026-05-01 09:08 | 32.21635 | 34.94499 | 4442 ft | 238 kts | 109° |
| 2026-05-01 09:09 | 32.21152 | 34.96390 | 4172 ft | 242 kts | 108° |
| 2026-05-01 09:09 | 32.20403 | 34.98119 | 3903 ft | 234 kts | 136° |
| 2026-05-01 09:09 | 32.19050 | 34.99045 | 3691 ft | 225 kts | 166° |
| 2026-05-01 09:09 | 32.17511 | 34.99221 | 3423 ft | 220 kts | 186° |
| 2026-05-01 09:10 | 32.16010 | 34.99003 | 3186 ft | 215 kts | 198° |
| 2026-05-01 09:10 | 32.14641 | 34.98333 | 2969 ft | 214 kts | 209° |
| 2026-05-01 09:10 | 32.13333 | 34.97511 | 2665 ft | 213 kts | 212° |
| 2026-05-01 09:10 | 32.12044 | 34.96661 | 2405 ft | 213 kts | 210° |
| 2026-05-01 09:11 | 32.10765 | 34.95828 | 2094 ft | 203 kts | 211° |
| 2026-05-01 09:11 | 32.09571 | 34.95056 | 1859 ft | 192 kts | 211° |
| 2026-05-01 09:11 | 32.08419 | 34.94308 | 1568 ft | 185 kts | 211° |
| 2026-05-01 09:11 | 32.07336 | 34.93608 | 1383 ft | 176 kts | 212° |
| 2026-05-01 09:12 | 32.06290 | 34.92927 | 1189 ft | 166 kts | 212° |
| 2026-05-01 09:12 | 32.05298 | 34.92288 | 974 ft | 155 kts | 212° |
| 2026-05-01 09:12 | 32.04351 | 34.91675 | 722 ft | 155 kts | 214° |
| 2026-05-01 09:12 | 32.03401 | 34.91055 | 575 ft | 158 kts | 214° |
| 2026-05-01 09:13 | 32.02470 | 34.90449 | 350 ft | 144 kts | 210° |
| 2026-05-01 09:13 | 32.01612 | 34.89905 | 128 ft | 136 kts | 210° |
| 2026-05-01 09:13 | 32.00868 | 34.89412 | 121 ft | 105 kts | 208° |
| 2026-05-01 09:13 | 32.00363 | 34.89084 | 118 ft | 60 kts | 209° |
| 2026-05-01 09:14 | 32.00154 | 34.88863 | 120 ft | 30 kts | 237° |
| 2026-05-01 09:14 | 32.00094 | 34.88644 | 116 ft | 29 kts | 293° |
| 2026-05-01 09:14 | 32.00193 | 34.88471 | 118 ft | 24 kts | 294° |
| 2026-05-01 09:14 | 32.00269 | 34.88305 | 117 ft | 23 kts | 300° |
| 2026-05-01 09:15 | 32.00348 | 34.88148 | 117 ft | 22 kts | 305° |
| 2026-05-01 09:15 | 32.00430 | 34.87998 | 115 ft | 21 kts | 301° |
| 2026-05-01 09:15 | 32.00460 | 34.87939 | 116 ft | 7 kts | 300° |
| 2026-05-01 09:15 | 32.00484 | 34.87889 | 119 ft | 7 kts | 299° |
| 2026-05-01 09:16 | 32.00509 | 34.87841 | 118 ft | 7 kts | 302° |
| 2026-05-01 09:16 | 32.00534 | 34.87795 | 115 ft | 7 kts | 302° |
| 2026-05-01 09:16 | 32.00558 | 34.87749 | 118 ft | 7 kts | 300° |
| 2026-05-01 09:17 | 32.00545 | 34.87651 | 116 ft | 7 kts | 235° |
| 2026-05-01 09:17 | 32.00518 | 34.87605 | 117 ft | 7 kts | 233° |
| 2026-05-01 09:17 | 32.00438 | 34.87570 | 117 ft | 0 kts | 224° |
| 2026-05-01 09:18 | 32.00434 | 34.87565 | 119 ft | 1 kts | 224° |
| 2026-05-01 09:18 | 32.00422 | 34.87551 | 117 ft | 0 kts | 227° |